sensor_id;sensor_type;location;lat;lon;timestamp;P1;durP1;ratioP1;P2;durP2;ratioP2
23384;SDS011;11865;45.394;10.978;2023-07-02T00:00:07;19.73;;;16.40;;
23384;SDS011;11865;45.394;10.978;2023-07-02T00:02:36;20.75;;;17.13;;
23384;SDS011;11865;45.394;10.978;2023-07-02T00:05:05;23.17;;;16.13;;
23384;SDS011;11865;45.394;10.978;2023-07-02T00:07:34;23.20;;;17.52;;
23384;SDS011;11865;45.394;10.978;2023-07-02T00:10:04;23.50;;;17.52;;
23384;SDS011;11865;45.394;10.978;2023-07-02T00:12:32;26.48;;;17.20;;
23384;SDS011;11865;45.394;10.978;2023-07-02T00:15:00;24.63;;;17.33;;
23384;SDS011;11865;45.394;10.978;2023-07-02T00:17:28;25.20;;;17.30;;
23384;SDS011;11865;45.394;10.978;2023-07-02T00:19:56;25.15;;;18.13;;
23384;SDS011;11865;45.394;10.978;2023-07-02T00:22:24;28.23;;;17.35;;
23384;SDS011;11865;45.394;10.978;2023-07-02T00:24:51;22.23;;;16.77;;
23384;SDS011;11865;45.394;10.978;2023-07-02T00:27:22;21.52;;;17.80;;
23384;SDS011;11865;45.394;10.978;2023-07-02T00:29:50;22.70;;;17.42;;
23384;SDS011;11865;45.394;10.978;2023-07-02T00:32:18;23.38;;;16.50;;
23384;SDS011;11865;45.394;10.978;2023-07-02T00:34:45;20.92;;;17.35;;
23384;SDS011;11865;45.394;10.978;2023-07-02T00:37:13;24.38;;;17.88;;
23384;SDS011;11865;45.394;10.978;2023-07-02T00:39:42;21.60;;;18.23;;
23384;SDS011;11865;45.394;10.978;2023-07-02T00:42:09;26.33;;;18.77;;
23384;SDS011;11865;45.394;10.978;2023-07-02T00:44:38;19.88;;;17.77;;
23384;SDS011;11865;45.394;10.978;2023-07-02T00:47:08;22.77;;;18.25;;
23384;SDS011;11865;45.394;10.978;2023-07-02T00:49:36;23.38;;;18.80;;
23384;SDS011;11865;45.394;10.978;2023-07-02T00:52:04;20.73;;;17.30;;
23384;SDS011;11865;45.394;10.978;2023-07-02T00:54:32;21.95;;;17.88;;
23384;SDS011;11865;45.394;10.978;2023-07-02T00:57:00;20.45;;;16.90;;
23384;SDS011;11865;45.394;10.978;2023-07-02T00:59:30;17.45;;;15.15;;
23384;SDS011;11865;45.394;10.978;2023-07-02T01:02:01;18.05;;;14.25;;
23384;SDS011;11865;45.394;10.978;2023-07-02T01:04:29;16.35;;;13.10;;
23384;SDS011;11865;45.394;10.978;2023-07-02T01:06:57;14.52;;;12.25;;
23384;SDS011;11865;45.394;10.978;2023-07-02T01:09:25;15.57;;;12.40;;
23384;SDS011;11865;45.394;10.978;2023-07-02T01:11:54;14.30;;;11.88;;
23384;SDS011;11865;45.394;10.978;2023-07-02T01:14:32;13.18;;;11.70;;
23384;SDS011;11865;45.394;10.978;2023-07-02T01:17:02;14.25;;;12.10;;
23384;SDS011;11865;45.394;10.978;2023-07-02T01:22:11;15.82;;;12.57;;
23384;SDS011;11865;45.394;10.978;2023-07-02T01:24:39;16.70;;;12.10;;
23384;SDS011;11865;45.394;10.978;2023-07-02T01:27:08;14.43;;;12.43;;
23384;SDS011;11865;45.394;10.978;2023-07-02T01:29:37;17.40;;;13.25;;
23384;SDS011;11865;45.394;10.978;2023-07-02T01:32:05;14.18;;;12.70;;
23384;SDS011;11865;45.394;10.978;2023-07-02T01:34:33;14.45;;;12.45;;
23384;SDS011;11865;45.394;10.978;2023-07-02T01:37:01;16.13;;;13.32;;
23384;SDS011;11865;45.394;10.978;2023-07-02T01:39:28;17.65;;;12.77;;
23384;SDS011;11865;45.394;10.978;2023-07-02T01:42:07;18.35;;;13.10;;
23384;SDS011;11865;45.394;10.978;2023-07-02T01:44:36;13.80;;;12.15;;
23384;SDS011;11865;45.394;10.978;2023-07-02T01:47:04;15.88;;;13.00;;
23384;SDS011;11865;45.394;10.978;2023-07-02T01:49:32;16.90;;;13.07;;
23384;SDS011;11865;45.394;10.978;2023-07-02T01:52:00;17.75;;;12.88;;
23384;SDS011;11865;45.394;10.978;2023-07-02T01:54:28;16.15;;;14.00;;
23384;SDS011;11865;45.394;10.978;2023-07-02T01:56:57;15.65;;;13.18;;
23384;SDS011;11865;45.394;10.978;2023-07-02T01:59:24;19.83;;;12.75;;
23384;SDS011;11865;45.394;10.978;2023-07-02T02:01:52;14.18;;;12.13;;
23384;SDS011;11865;45.394;10.978;2023-07-02T02:04:20;14.68;;;12.38;;
23384;SDS011;11865;45.394;10.978;2023-07-02T02:06:47;15.23;;;13.05;;
23384;SDS011;11865;45.394;10.978;2023-07-02T02:09:15;16.48;;;13.23;;
23384;SDS011;11865;45.394;10.978;2023-07-02T02:11:44;16.83;;;12.85;;
23384;SDS011;11865;45.394;10.978;2023-07-02T02:14:13;17.42;;;12.60;;
23384;SDS011;11865;45.394;10.978;2023-07-02T02:16:40;17.10;;;13.63;;
23384;SDS011;11865;45.394;10.978;2023-07-02T02:19:09;16.73;;;13.70;;
23384;SDS011;11865;45.394;10.978;2023-07-02T02:21:36;14.98;;;12.40;;
23384;SDS011;11865;45.394;10.978;2023-07-02T02:24:05;16.88;;;13.77;;
23384;SDS011;11865;45.394;10.978;2023-07-02T02:26:34;15.68;;;13.95;;
23384;SDS011;11865;45.394;10.978;2023-07-02T02:29:02;17.67;;;13.98;;
23384;SDS011;11865;45.394;10.978;2023-07-02T02:31:30;17.73;;;14.32;;
23384;SDS011;11865;45.394;10.978;2023-07-02T02:33:59;18.70;;;13.63;;
23384;SDS011;11865;45.394;10.978;2023-07-02T02:36:26;16.10;;;14.20;;
23384;SDS011;11865;45.394;10.978;2023-07-02T02:38:54;19.95;;;13.90;;
23384;SDS011;11865;45.394;10.978;2023-07-02T02:41:23;17.83;;;13.65;;
23384;SDS011;11865;45.394;10.978;2023-07-02T02:43:52;14.98;;;13.35;;
23384;SDS011;11865;45.394;10.978;2023-07-02T02:46:21;17.20;;;13.68;;
23384;SDS011;11865;45.394;10.978;2023-07-02T02:48:50;17.10;;;13.88;;
23384;SDS011;11865;45.394;10.978;2023-07-02T02:51:18;19.50;;;13.85;;
23384;SDS011;11865;45.394;10.978;2023-07-02T02:53:46;14.55;;;12.90;;
23384;SDS011;11865;45.394;10.978;2023-07-02T02:56:13;17.10;;;13.00;;
23384;SDS011;11865;45.394;10.978;2023-07-02T02:58:41;17.85;;;15.95;;
23384;SDS011;11865;45.394;10.978;2023-07-02T03:01:08;17.00;;;13.88;;
23384;SDS011;11865;45.394;10.978;2023-07-02T03:03:39;16.67;;;14.18;;
23384;SDS011;11865;45.394;10.978;2023-07-02T03:06:13;15.48;;;13.10;;
23384;SDS011;11865;45.394;10.978;2023-07-02T03:08:43;17.95;;;13.77;;
23384;SDS011;11865;45.394;10.978;2023-07-02T03:11:11;17.38;;;13.30;;
23384;SDS011;11865;45.394;10.978;2023-07-02T03:13:39;14.98;;;13.32;;
23384;SDS011;11865;45.394;10.978;2023-07-02T03:16:06;15.95;;;14.05;;
23384;SDS011;11865;45.394;10.978;2023-07-02T03:18:34;15.77;;;13.55;;
23384;SDS011;11865;45.394;10.978;2023-07-02T03:21:02;16.90;;;14.90;;
23384;SDS011;11865;45.394;10.978;2023-07-02T03:23:29;19.85;;;15.20;;
23384;SDS011;11865;45.394;10.978;2023-07-02T03:25:57;17.88;;;14.77;;
23384;SDS011;11865;45.394;10.978;2023-07-02T03:28:24;17.05;;;15.15;;
23384;SDS011;11865;45.394;10.978;2023-07-02T03:30:52;21.02;;;16.08;;
23384;SDS011;11865;45.394;10.978;2023-07-02T03:33:19;17.88;;;15.88;;
23384;SDS011;11865;45.394;10.978;2023-07-02T03:35:47;22.48;;;15.80;;
23384;SDS011;11865;45.394;10.978;2023-07-02T03:38:14;20.77;;;16.25;;
23384;SDS011;11865;45.394;10.978;2023-07-02T03:40:42;17.63;;;14.52;;
23384;SDS011;11865;45.394;10.978;2023-07-02T03:43:10;19.13;;;15.15;;
23384;SDS011;11865;45.394;10.978;2023-07-02T03:45:37;18.25;;;15.45;;
23384;SDS011;11865;45.394;10.978;2023-07-02T03:48:05;15.73;;;13.88;;
23384;SDS011;11865;45.394;10.978;2023-07-02T03:50:32;16.75;;;13.95;;
23384;SDS011;11865;45.394;10.978;2023-07-02T03:53:00;17.13;;;14.38;;
23384;SDS011;11865;45.394;10.978;2023-07-02T03:55:27;16.23;;;13.30;;
23384;SDS011;11865;45.394;10.978;2023-07-02T03:57:55;17.10;;;13.95;;
23384;SDS011;11865;45.394;10.978;2023-07-02T04:00:22;15.73;;;14.02;;
23384;SDS011;11865;45.394;10.978;2023-07-02T04:02:51;16.85;;;13.38;;
23384;SDS011;11865;45.394;10.978;2023-07-02T04:05:18;20.70;;;14.38;;
23384;SDS011;11865;45.394;10.978;2023-07-02T04:07:47;16.75;;;14.90;;
23384;SDS011;11865;45.394;10.978;2023-07-02T04:10:14;17.98;;;14.60;;
23384;SDS011;11865;45.394;10.978;2023-07-02T04:12:42;15.77;;;13.77;;
23384;SDS011;11865;45.394;10.978;2023-07-02T04:15:09;18.27;;;15.07;;
23384;SDS011;11865;45.394;10.978;2023-07-02T04:17:37;19.48;;;15.52;;
23384;SDS011;11865;45.394;10.978;2023-07-02T04:20:05;17.77;;;14.52;;
23384;SDS011;11865;45.394;10.978;2023-07-02T04:22:34;19.98;;;14.80;;
23384;SDS011;11865;45.394;10.978;2023-07-02T04:25:01;18.40;;;14.43;;
23384;SDS011;11865;45.394;10.978;2023-07-02T04:27:38;20.58;;;15.80;;
23384;SDS011;11865;45.394;10.978;2023-07-02T04:30:18;15.75;;;14.18;;
23384;SDS011;11865;45.394;10.978;2023-07-02T04:32:45;18.13;;;15.10;;
23384;SDS011;11865;45.394;10.978;2023-07-02T04:35:14;19.25;;;15.05;;
23384;SDS011;11865;45.394;10.978;2023-07-02T04:37:41;17.38;;;14.98;;
23384;SDS011;11865;45.394;10.978;2023-07-02T04:40:09;20.27;;;15.35;;
23384;SDS011;11865;45.394;10.978;2023-07-02T04:42:38;19.63;;;14.10;;
23384;SDS011;11865;45.394;10.978;2023-07-02T04:45:07;20.20;;;14.07;;
23384;SDS011;11865;45.394;10.978;2023-07-02T04:47:35;17.65;;;15.07;;
23384;SDS011;11865;45.394;10.978;2023-07-02T04:50:04;18.40;;;14.60;;
23384;SDS011;11865;45.394;10.978;2023-07-02T04:52:32;18.83;;;15.18;;
23384;SDS011;11865;45.394;10.978;2023-07-02T04:55:00;19.10;;;13.82;;
23384;SDS011;11865;45.394;10.978;2023-07-02T04:57:29;15.70;;;14.00;;
23384;SDS011;11865;45.394;10.978;2023-07-02T04:59:56;18.13;;;13.35;;
23384;SDS011;11865;45.394;10.978;2023-07-02T05:02:24;14.50;;;12.77;;
23384;SDS011;11865;45.394;10.978;2023-07-02T05:04:52;17.08;;;12.43;;
23384;SDS011;11865;45.394;10.978;2023-07-02T05:07:19;17.10;;;12.95;;
23384;SDS011;11865;45.394;10.978;2023-07-02T05:09:47;17.00;;;12.32;;
23384;SDS011;11865;45.394;10.978;2023-07-02T05:12:19;19.02;;;12.57;;
23384;SDS011;11865;45.394;10.978;2023-07-02T05:14:46;19.10;;;12.50;;
23384;SDS011;11865;45.394;10.978;2023-07-02T05:17:14;14.50;;;12.07;;
23384;SDS011;11865;45.394;10.978;2023-07-02T05:19:41;15.57;;;12.52;;
23384;SDS011;11865;45.394;10.978;2023-07-02T05:22:09;14.30;;;11.77;;
23384;SDS011;11865;45.394;10.978;2023-07-02T05:24:37;14.95;;;11.85;;
23384;SDS011;11865;45.394;10.978;2023-07-02T05:27:05;14.57;;;11.15;;
23384;SDS011;11865;45.394;10.978;2023-07-02T05:29:32;14.35;;;11.70;;
23384;SDS011;11865;45.394;10.978;2023-07-02T05:32:00;14.10;;;12.10;;
23384;SDS011;11865;45.394;10.978;2023-07-02T05:34:28;13.70;;;12.25;;
23384;SDS011;11865;45.394;10.978;2023-07-02T05:36:55;14.88;;;11.60;;
23384;SDS011;11865;45.394;10.978;2023-07-02T05:39:23;21.15;;;11.63;;
23384;SDS011;11865;45.394;10.978;2023-07-02T05:41:50;15.18;;;10.77;;
23384;SDS011;11865;45.394;10.978;2023-07-02T05:44:18;12.32;;;10.32;;
23384;SDS011;11865;45.394;10.978;2023-07-02T05:46:47;13.15;;;10.65;;
23384;SDS011;11865;45.394;10.978;2023-07-02T05:49:14;12.73;;;9.93;;
23384;SDS011;11865;45.394;10.978;2023-07-02T05:51:42;11.68;;;9.63;;
23384;SDS011;11865;45.394;10.978;2023-07-02T05:54:09;13.25;;;9.73;;
23384;SDS011;11865;45.394;10.978;2023-07-02T05:56:37;12.57;;;9.23;;
23384;SDS011;11865;45.394;10.978;2023-07-02T05:59:04;13.23;;;9.60;;
23384;SDS011;11865;45.394;10.978;2023-07-02T06:01:32;15.23;;;10.85;;
23384;SDS011;11865;45.394;10.978;2023-07-02T06:03:59;12.43;;;10.55;;
23384;SDS011;11865;45.394;10.978;2023-07-02T06:06:27;13.90;;;10.05;;
23384;SDS011;11865;45.394;10.978;2023-07-02T06:08:54;12.93;;;9.85;;
23384;SDS011;11865;45.394;10.978;2023-07-02T06:11:22;11.75;;;10.13;;
23384;SDS011;11865;45.394;10.978;2023-07-02T06:13:49;11.38;;;8.98;;
23384;SDS011;11865;45.394;10.978;2023-07-02T06:16:17;11.48;;;9.02;;
23384;SDS011;11865;45.394;10.978;2023-07-02T06:18:45;11.07;;;8.70;;
23384;SDS011;11865;45.394;10.978;2023-07-02T06:21:12;13.23;;;9.40;;
23384;SDS011;11865;45.394;10.978;2023-07-02T06:23:40;11.57;;;8.38;;
23384;SDS011;11865;45.394;10.978;2023-07-02T06:26:12;11.07;;;8.25;;
23384;SDS011;11865;45.394;10.978;2023-07-02T06:28:39;13.07;;;8.75;;
23384;SDS011;11865;45.394;10.978;2023-07-02T06:31:07;11.15;;;9.20;;
23384;SDS011;11865;45.394;10.978;2023-07-02T06:33:37;12.73;;;8.25;;
23384;SDS011;11865;45.394;10.978;2023-07-02T06:36:07;12.55;;;9.15;;
23384;SDS011;11865;45.394;10.978;2023-07-02T06:38:38;20.08;;;10.93;;
23384;SDS011;11865;45.394;10.978;2023-07-02T06:41:05;11.55;;;8.40;;
23384;SDS011;11865;45.394;10.978;2023-07-02T06:43:33;16.23;;;8.02;;
23384;SDS011;11865;45.394;10.978;2023-07-02T06:46:00;16.52;;;9.98;;
23384;SDS011;11865;45.394;10.978;2023-07-02T06:48:28;13.30;;;9.75;;
23384;SDS011;11865;45.394;10.978;2023-07-02T06:50:55;20.92;;;11.10;;
23384;SDS011;11865;45.394;10.978;2023-07-02T06:53:23;15.85;;;10.77;;
23384;SDS011;11865;45.394;10.978;2023-07-02T06:55:50;14.38;;;10.77;;
23384;SDS011;11865;45.394;10.978;2023-07-02T06:58:18;14.70;;;9.68;;
23384;SDS011;11865;45.394;10.978;2023-07-02T07:00:46;12.73;;;8.70;;
23384;SDS011;11865;45.394;10.978;2023-07-02T07:03:15;15.13;;;10.10;;
23384;SDS011;11865;45.394;10.978;2023-07-02T07:05:43;12.88;;;9.77;;
23384;SDS011;11865;45.394;10.978;2023-07-02T07:08:10;19.40;;;9.93;;
23384;SDS011;11865;45.394;10.978;2023-07-02T07:10:38;15.27;;;9.85;;
23384;SDS011;11865;45.394;10.978;2023-07-02T07:13:06;12.98;;;9.95;;
23384;SDS011;11865;45.394;10.978;2023-07-02T07:15:37;12.55;;;10.13;;
23384;SDS011;11865;45.394;10.978;2023-07-02T07:18:07;12.75;;;9.90;;
23384;SDS011;11865;45.394;10.978;2023-07-02T07:20:35;13.85;;;10.77;;
23384;SDS011;11865;45.394;10.978;2023-07-02T07:23:05;19.67;;;11.40;;
23384;SDS011;11865;45.394;10.978;2023-07-02T07:25:33;16.38;;;11.65;;
23384;SDS011;11865;45.394;10.978;2023-07-02T07:28:00;17.23;;;10.93;;
23384;SDS011;11865;45.394;10.978;2023-07-02T07:30:28;16.77;;;11.90;;
23384;SDS011;11865;45.394;10.978;2023-07-02T07:32:59;15.82;;;11.70;;
23384;SDS011;11865;45.394;10.978;2023-07-02T07:35:26;13.02;;;10.45;;
23384;SDS011;11865;45.394;10.978;2023-07-02T07:37:54;14.18;;;10.88;;
23384;SDS011;11865;45.394;10.978;2023-07-02T07:40:21;14.80;;;10.90;;
23384;SDS011;11865;45.394;10.978;2023-07-02T07:42:49;17.65;;;11.38;;
23384;SDS011;11865;45.394;10.978;2023-07-02T07:45:16;16.23;;;11.38;;
23384;SDS011;11865;45.394;10.978;2023-07-02T07:47:44;14.15;;;11.30;;
23384;SDS011;11865;45.394;10.978;2023-07-02T07:50:12;12.43;;;10.30;;
23384;SDS011;11865;45.394;10.978;2023-07-02T07:52:40;17.23;;;11.80;;
23384;SDS011;11865;45.394;10.978;2023-07-02T07:55:09;12.27;;;10.18;;
23384;SDS011;11865;45.394;10.978;2023-07-02T07:57:36;21.50;;;13.30;;
23384;SDS011;11865;45.394;10.978;2023-07-02T08:00:04;15.98;;;11.13;;
23384;SDS011;11865;45.394;10.978;2023-07-02T08:02:45;13.55;;;9.90;;
23384;SDS011;11865;45.394;10.978;2023-07-02T08:05:16;13.33;;;10.00;;
23384;SDS011;11865;45.394;10.978;2023-07-02T08:07:43;16.20;;;11.52;;
23384;SDS011;11865;45.394;10.978;2023-07-02T08:10:11;17.67;;;12.15;;
23384;SDS011;11865;45.394;10.978;2023-07-02T08:12:38;15.10;;;11.40;;
23384;SDS011;11865;45.394;10.978;2023-07-02T08:15:06;18.25;;;11.90;;
23384;SDS011;11865;45.394;10.978;2023-07-02T08:17:34;15.70;;;12.80;;
23384;SDS011;11865;45.394;10.978;2023-07-02T08:20:02;19.55;;;12.55;;
23384;SDS011;11865;45.394;10.978;2023-07-02T08:22:31;15.45;;;11.20;;
23384;SDS011;11865;45.394;10.978;2023-07-02T08:24:58;13.90;;;11.68;;
23384;SDS011;11865;45.394;10.978;2023-07-02T08:27:27;14.57;;;11.10;;
23384;SDS011;11865;45.394;10.978;2023-07-02T08:29:54;16.15;;;12.65;;
23384;SDS011;11865;45.394;10.978;2023-07-02T08:32:22;16.60;;;12.95;;
23384;SDS011;11865;45.394;10.978;2023-07-02T08:34:49;16.35;;;12.50;;
23384;SDS011;11865;45.394;10.978;2023-07-02T08:37:20;16.27;;;14.40;;
23384;SDS011;11865;45.394;10.978;2023-07-02T08:39:48;15.60;;;13.13;;
23384;SDS011;11865;45.394;10.978;2023-07-02T08:42:16;21.30;;;15.90;;
23384;SDS011;11865;45.394;10.978;2023-07-02T08:44:47;15.68;;;13.20;;
23384;SDS011;11865;45.394;10.978;2023-07-02T08:47:15;19.65;;;14.50;;
23384;SDS011;11865;45.394;10.978;2023-07-02T08:49:43;18.15;;;13.93;;
23384;SDS011;11865;45.394;10.978;2023-07-02T08:52:11;22.70;;;15.35;;
23384;SDS011;11865;45.394;10.978;2023-07-02T08:54:38;15.77;;;13.50;;
23384;SDS011;11865;45.394;10.978;2023-07-02T08:57:06;18.65;;;14.10;;
23384;SDS011;11865;45.394;10.978;2023-07-02T08:59:33;18.85;;;15.20;;
23384;SDS011;11865;45.394;10.978;2023-07-02T09:02:03;21.75;;;16.80;;
23384;SDS011;11865;45.394;10.978;2023-07-02T09:04:31;19.70;;;16.50;;
23384;SDS011;11865;45.394;10.978;2023-07-02T09:07:05;23.35;;;18.23;;
23384;SDS011;11865;45.394;10.978;2023-07-02T09:09:46;23.88;;;16.20;;
23384;SDS011;11865;45.394;10.978;2023-07-02T09:12:26;21.42;;;15.48;;
23384;SDS011;11865;45.394;10.978;2023-07-02T09:14:59;19.90;;;15.02;;
23384;SDS011;11865;45.394;10.978;2023-07-02T09:17:37;21.02;;;15.68;;
23384;SDS011;11865;45.394;10.978;2023-07-02T09:20:05;19.80;;;14.95;;
23384;SDS011;11865;45.394;10.978;2023-07-02T09:22:36;21.98;;;14.73;;
23384;SDS011;11865;45.394;10.978;2023-07-02T09:25:04;17.63;;;14.73;;
23384;SDS011;11865;45.394;10.978;2023-07-02T09:32:45;19.05;;;15.27;;
23384;SDS011;11865;45.394;10.978;2023-07-02T09:35:13;20.73;;;14.82;;
23384;SDS011;11865;45.394;10.978;2023-07-02T09:37:42;19.05;;;14.90;;
23384;SDS011;11865;45.394;10.978;2023-07-02T09:40:11;17.92;;;13.80;;
23384;SDS011;11865;45.394;10.978;2023-07-02T09:42:39;24.98;;;16.20;;
23384;SDS011;11865;45.394;10.978;2023-07-02T09:45:08;22.55;;;16.50;;
23384;SDS011;11865;45.394;10.978;2023-07-02T09:47:39;21.90;;;17.08;;
23384;SDS011;11865;45.394;10.978;2023-07-02T09:50:12;20.80;;;15.43;;
23384;SDS011;11865;45.394;10.978;2023-07-02T09:52:44;17.02;;;14.25;;
23384;SDS011;11865;45.394;10.978;2023-07-02T09:55:13;18.15;;;14.73;;
23384;SDS011;11865;45.394;10.978;2023-07-02T09:57:42;20.95;;;16.45;;
23384;SDS011;11865;45.394;10.978;2023-07-02T10:00:11;19.80;;;14.45;;
23384;SDS011;11865;45.394;10.978;2023-07-02T10:02:39;18.15;;;13.48;;
23384;SDS011;11865;45.394;10.978;2023-07-02T10:05:07;18.95;;;14.25;;
23384;SDS011;11865;45.394;10.978;2023-07-02T10:07:35;17.25;;;13.90;;
23384;SDS011;11865;45.394;10.978;2023-07-02T10:10:03;19.75;;;14.52;;
23384;SDS011;11865;45.394;10.978;2023-07-02T10:12:31;20.10;;;14.13;;
23384;SDS011;11865;45.394;10.978;2023-07-02T10:14:58;25.05;;;15.73;;
23384;SDS011;11865;45.394;10.978;2023-07-02T10:19:57;18.25;;;13.88;;
23384;SDS011;11865;45.394;10.978;2023-07-02T10:22:26;18.33;;;14.65;;
23384;SDS011;11865;45.394;10.978;2023-07-02T10:24:57;21.17;;;14.25;;
23384;SDS011;11865;45.394;10.978;2023-07-02T10:27:38;19.00;;;13.75;;
23384;SDS011;11865;45.394;10.978;2023-07-02T10:30:08;17.48;;;14.45;;
23384;SDS011;11865;45.394;10.978;2023-07-02T10:32:36;22.35;;;15.52;;
23384;SDS011;11865;45.394;10.978;2023-07-02T10:35:15;18.65;;;14.93;;
23384;SDS011;11865;45.394;10.978;2023-07-02T10:37:44;20.83;;;15.30;;
23384;SDS011;11865;45.394;10.978;2023-07-02T10:40:12;18.83;;;14.70;;
23384;SDS011;11865;45.394;10.978;2023-07-02T10:42:49;15.07;;;12.73;;
23384;SDS011;11865;45.394;10.978;2023-07-02T10:45:18;21.58;;;13.57;;
23384;SDS011;11865;45.394;10.978;2023-07-02T10:47:46;20.23;;;13.65;;
23384;SDS011;11865;45.394;10.978;2023-07-02T10:50:18;17.58;;;13.75;;
23384;SDS011;11865;45.394;10.978;2023-07-02T10:52:47;17.20;;;14.63;;
23384;SDS011;11865;45.394;10.978;2023-07-02T10:55:20;19.00;;;14.13;;
23384;SDS011;11865;45.394;10.978;2023-07-02T10:57:50;17.10;;;14.32;;
23384;SDS011;11865;45.394;10.978;2023-07-02T11:00:29;17.13;;;12.45;;
23384;SDS011;11865;45.394;10.978;2023-07-02T11:02:57;18.10;;;15.45;;
23384;SDS011;11865;45.394;10.978;2023-07-02T11:05:26;16.75;;;14.32;;
23384;SDS011;11865;45.394;10.978;2023-07-02T11:08:05;13.27;;;11.82;;
23384;SDS011;11865;45.394;10.978;2023-07-02T11:10:35;16.55;;;13.35;;
23384;SDS011;11865;45.394;10.978;2023-07-02T11:13:18;17.10;;;14.18;;
23384;SDS011;11865;45.394;10.978;2023-07-02T11:15:47;14.07;;;12.50;;
23384;SDS011;11865;45.394;10.978;2023-07-02T11:18:16;18.80;;;13.88;;
23384;SDS011;11865;45.394;10.978;2023-07-02T11:20:45;16.92;;;13.65;;
23384;SDS011;11865;45.394;10.978;2023-07-02T11:23:17;18.48;;;13.52;;
23384;SDS011;11865;45.394;10.978;2023-07-02T11:25:59;17.40;;;13.82;;
23384;SDS011;11865;45.394;10.978;2023-07-02T11:28:29;13.80;;;12.07;;
23384;SDS011;11865;45.394;10.978;2023-07-02T11:30:58;13.38;;;11.65;;
23384;SDS011;11865;45.394;10.978;2023-07-02T11:36:21;13.82;;;11.63;;
23384;SDS011;11865;45.394;10.978;2023-07-02T11:38:54;15.23;;;11.75;;
23384;SDS011;11865;45.394;10.978;2023-07-02T11:41:22;15.30;;;11.00;;
23384;SDS011;11865;45.394;10.978;2023-07-02T11:43:49;12.80;;;10.90;;
23384;SDS011;11865;45.394;10.978;2023-07-02T11:46:17;16.98;;;12.38;;
23384;SDS011;11865;45.394;10.978;2023-07-02T11:48:44;16.80;;;12.13;;
23384;SDS011;11865;45.394;10.978;2023-07-02T11:51:12;17.13;;;12.52;;
23384;SDS011;11865;45.394;10.978;2023-07-02T11:53:39;13.60;;;10.82;;
23384;SDS011;11865;45.394;10.978;2023-07-02T11:56:07;13.05;;;10.77;;
23384;SDS011;11865;45.394;10.978;2023-07-02T11:58:34;11.25;;;9.48;;
23384;SDS011;11865;45.394;10.978;2023-07-02T12:01:02;12.65;;;11.05;;
23384;SDS011;11865;45.394;10.978;2023-07-02T12:03:29;15.48;;;11.07;;
23384;SDS011;11865;45.394;10.978;2023-07-02T12:05:57;15.23;;;10.50;;
23384;SDS011;11865;45.394;10.978;2023-07-02T12:08:24;14.80;;;11.40;;
23384;SDS011;11865;45.394;10.978;2023-07-02T12:10:52;14.75;;;10.43;;
23384;SDS011;11865;45.394;10.978;2023-07-02T12:13:19;16.35;;;10.93;;
23384;SDS011;11865;45.394;10.978;2023-07-02T12:15:50;9.95;;;8.68;;
23384;SDS011;11865;45.394;10.978;2023-07-02T12:18:18;13.98;;;10.77;;
23384;SDS011;11865;45.394;10.978;2023-07-02T12:20:45;12.68;;;9.70;;
23384;SDS011;11865;45.394;10.978;2023-07-02T12:23:13;11.20;;;9.90;;
23384;SDS011;11865;45.394;10.978;2023-07-02T12:25:40;14.27;;;10.23;;
23384;SDS011;11865;45.394;10.978;2023-07-02T12:28:08;11.98;;;9.55;;
23384;SDS011;11865;45.394;10.978;2023-07-02T12:30:39;12.17;;;10.03;;
23384;SDS011;11865;45.394;10.978;2023-07-02T12:33:06;11.60;;;9.55;;
23384;SDS011;11865;45.394;10.978;2023-07-02T12:35:34;10.63;;;9.15;;
23384;SDS011;11865;45.394;10.978;2023-07-02T12:38:01;12.63;;;9.40;;
23384;SDS011;11865;45.394;10.978;2023-07-02T12:40:30;13.25;;;9.32;;
23384;SDS011;11865;45.394;10.978;2023-07-02T12:42:58;13.05;;;9.48;;
23384;SDS011;11865;45.394;10.978;2023-07-02T12:45:26;11.00;;;9.43;;
23384;SDS011;11865;45.394;10.978;2023-07-02T12:47:53;11.65;;;9.25;;
23384;SDS011;11865;45.394;10.978;2023-07-02T12:50:21;10.27;;;8.65;;
23384;SDS011;11865;45.394;10.978;2023-07-02T12:52:48;9.75;;;8.75;;
23384;SDS011;11865;45.394;10.978;2023-07-02T12:55:16;13.32;;;10.43;;
23384;SDS011;11865;45.394;10.978;2023-07-02T12:57:43;11.55;;;10.02;;
23384;SDS011;11865;45.394;10.978;2023-07-02T13:00:11;12.27;;;9.73;;
23384;SDS011;11865;45.394;10.978;2023-07-02T13:02:39;10.80;;;9.70;;
23384;SDS011;11865;45.394;10.978;2023-07-02T13:05:19;12.70;;;10.60;;
23384;SDS011;11865;45.394;10.978;2023-07-02T13:07:47;12.45;;;9.55;;
23384;SDS011;11865;45.394;10.978;2023-07-02T13:10:14;11.40;;;8.60;;
23384;SDS011;11865;45.394;10.978;2023-07-02T13:12:42;10.23;;;8.80;;
23384;SDS011;11865;45.394;10.978;2023-07-02T13:15:10;9.93;;;8.77;;
23384;SDS011;11865;45.394;10.978;2023-07-02T13:17:39;12.40;;;10.05;;
23384;SDS011;11865;45.394;10.978;2023-07-02T13:20:08;10.05;;;9.00;;
23384;SDS011;11865;45.394;10.978;2023-07-02T13:22:36;10.35;;;8.57;;
23384;SDS011;11865;45.394;10.978;2023-07-02T13:25:04;11.40;;;8.77;;
23384;SDS011;11865;45.394;10.978;2023-07-02T13:27:32;11.50;;;8.48;;
23384;SDS011;11865;45.394;10.978;2023-07-02T13:30:00;10.13;;;8.00;;
23384;SDS011;11865;45.394;10.978;2023-07-02T13:32:27;9.50;;;8.43;;
23384;SDS011;11865;45.394;10.978;2023-07-02T13:34:58;10.52;;;8.98;;
23384;SDS011;11865;45.394;10.978;2023-07-02T13:37:25;10.00;;;8.88;;
23384;SDS011;11865;45.394;10.978;2023-07-02T13:39:52;9.43;;;8.43;;
23384;SDS011;11865;45.394;10.978;2023-07-02T13:42:20;9.15;;;7.85;;
23384;SDS011;11865;45.394;10.978;2023-07-02T13:44:48;9.00;;;8.07;;
23384;SDS011;11865;45.394;10.978;2023-07-02T13:47:15;10.05;;;8.05;;
23384;SDS011;11865;45.394;10.978;2023-07-02T13:49:43;8.25;;;6.90;;
23384;SDS011;11865;45.394;10.978;2023-07-02T13:52:10;8.75;;;7.43;;
23384;SDS011;11865;45.394;10.978;2023-07-02T13:54:38;9.02;;;7.65;;
23384;SDS011;11865;45.394;10.978;2023-07-02T13:57:05;9.32;;;7.85;;
23384;SDS011;11865;45.394;10.978;2023-07-02T13:59:33;9.07;;;7.95;;
23384;SDS011;11865;45.394;10.978;2023-07-02T14:02:00;9.43;;;8.27;;
23384;SDS011;11865;45.394;10.978;2023-07-02T14:04:28;9.25;;;7.93;;
23384;SDS011;11865;45.394;10.978;2023-07-02T14:06:56;11.82;;;9.05;;
23384;SDS011;11865;45.394;10.978;2023-07-02T14:09:23;9.32;;;7.93;;
23384;SDS011;11865;45.394;10.978;2023-07-02T14:11:51;9.77;;;8.65;;
23384;SDS011;11865;45.394;10.978;2023-07-02T14:14:18;11.10;;;7.70;;
23384;SDS011;11865;45.394;10.978;2023-07-02T14:16:46;8.95;;;7.63;;
23384;SDS011;11865;45.394;10.978;2023-07-02T14:19:13;8.98;;;7.60;;
23384;SDS011;11865;45.394;10.978;2023-07-02T14:21:44;8.55;;;7.60;;
23384;SDS011;11865;45.394;10.978;2023-07-02T14:24:13;9.75;;;8.38;;
23384;SDS011;11865;45.394;10.978;2023-07-02T14:26:41;9.90;;;7.38;;
23384;SDS011;11865;45.394;10.978;2023-07-02T14:29:10;10.02;;;7.47;;
23384;SDS011;11865;45.394;10.978;2023-07-02T14:31:38;9.45;;;6.97;;
23384;SDS011;11865;45.394;10.978;2023-07-02T14:34:05;8.65;;;6.60;;